Time;durP1;ratioP1;P1;durP2;ratioP2;P2;SDS_P1;SDS_P2;PMS_P1;PMS_P2;Temp;Humidity;BMP_temperature;BMP_pressure;BME280_temperature;BME280_humidity;BME280_pressure;Samples;Min_cycle;Max_cycle;Signal;HPM_P1;HPM_P2
2023/09/03 00:00:55;;;;;;;7.25;4.60;;;17.30;99.90;;;;;;4964210;28;20035;-73
2023/09/03 00:03:21;;;;;;;6.78;4.53;;;17.30;99.90;;;;;;4957164;28;20412;-73
2023/09/03 00:05:51;;;;;;;5.40;4.15;;;17.30;99.90;;;;;;4962649;28;20385;-73
2023/09/03 00:08:17;;;;;;;6.97;4.80;;;17.20;99.90;;;;;;4967327;28;20027;-73
2023/09/03 00:10:56;;;;;;;6.43;4.50;;;17.20;99.90;;;;;;4956902;28;20022;-73
2023/09/03 00:13:22;;;;;;;5.63;4.25;;;17.20;99.90;;;;;;4964313;28;20031;-73
2023/09/03 00:15:48;;;;;;;8.65;4.72;;;17.10;99.90;;;;;;4961095;28;20066;-72
2023/09/03 00:18:14;;;;;;;8.63;5.00;;;17.10;99.90;;;;;;4950678;29;20015;-73
2023/09/03 00:20:41;;;;;;;6.63;4.70;;;17.10;99.90;;;;;;4958774;28;20035;-72
2023/09/03 00:23:09;;;;;;;7.93;4.85;;;17.10;99.90;;;;;;4968731;28;20028;-72
2023/09/03 00:25:37;;;;;;;7.50;4.30;;;17.10;99.90;;;;;;4969799;28;20042;-73
2023/09/03 00:28:04;;;;;;;7.55;4.18;;;17.10;99.90;;;;;;4963778;28;20082;-73
2023/09/03 00:30:29;;;;;;;6.47;4.90;;;17.00;99.90;;;;;;4964287;28;20027;-73
2023/09/03 00:32:55;;;;;;;7.65;4.97;;;17.00;99.90;;;;;;4970349;28;20034;-73
2023/09/03 00:35:21;;;;;;;7.10;5.03;;;17.00;99.90;;;;;;4957072;29;20110;-73
2023/09/03 00:37:46;;;;;;;6.93;4.28;;;17.00;99.90;;;;;;4958631;28;20023;-73
2023/09/03 00:40:12;;;;;;;6.10;4.30;;;16.90;99.90;;;;;;4967785;28;20055;-73
2023/09/03 00:42:38;;;;;;;6.68;4.53;;;16.90;99.90;;;;;;4969873;28;20486;-73
2023/09/03 00:45:04;;;;;;;6.85;4.80;;;16.90;99.90;;;;;;4946111;28;20027;-72
2023/09/03 00:47:31;;;;;;;6.18;4.65;;;16.90;99.90;;;;;;4963703;28;20592;-73
2023/09/03 00:49:57;;;;;;;6.88;4.82;;;16.90;99.90;;;;;;4973724;28;20027;-73
2023/09/03 00:52:24;;;;;;;7.68;4.90;;;16.90;99.90;;;;;;4964906;28;20023;-72
2023/09/03 00:54:51;;;;;;;7.68;4.50;;;16.80;99.90;;;;;;4970067;28;20023;-73
2023/09/03 00:57:17;;;;;;;6.18;4.70;;;16.80;99.90;;;;;;4938737;29;20019;-73
2023/09/03 00:59:45;;;;;;;8.32;4.72;;;16.80;99.90;;;;;;4970330;28;20477;-73
2023/09/03 01:02:14;;;;;;;7.65;4.78;;;16.70;99.90;;;;;;4963739;28;20023;-72
2023/09/03 01:04:42;;;;;;;6.43;4.60;;;16.70;99.90;;;;;;4972050;28;20030;-72
2023/09/03 01:07:09;;;;;;;5.88;4.40;;;16.70;99.90;;;;;;4949349;28;20033;-73
2023/09/03 01:09:35;;;;;;;6.63;4.85;;;16.70;99.90;;;;;;4958160;28;20032;-72
2023/09/03 01:12:14;;;;;;;7.60;5.25;;;16.70;99.90;;;;;;4960347;28;20038;-73
2023/09/03 01:15:19;;;;;;;8.32;5.05;;;16.70;99.90;;;;;;4967479;28;20254;-72
2023/09/03 01:18:09;;;;;;;7.07;4.07;;;16.60;99.90;;;;;;4930479;28;20054;-72
2023/09/03 01:20:38;;;;;;;6.03;4.60;;;16.60;99.90;;;;;;4969597;28;20027;-72
2023/09/03 01:23:04;;;;;;;7.82;4.95;;;16.60;99.90;;;;;;4963094;28;20039;-72
2023/09/03 01:25:38;;;;;;;6.03;4.28;;;16.60;99.90;;;;;;4962234;28;20043;-72
2023/09/03 01:28:26;;;;;;;7.75;5.00;;;16.50;99.90;;;;;;4949079;28;20037;-71
2023/09/03 01:31:02;;;;;;;7.30;5.10;;;16.50;99.90;;;;;;4944111;28;20024;-71
2023/09/03 01:33:29;;;;;;;6.95;5.03;;;16.50;99.90;;;;;;4949181;29;20102;-72
2023/09/03 01:35:57;;;;;;;6.05;4.68;;;16.50;99.90;;;;;;4957211;28;20510;-72
2023/09/03 01:38:26;;;;;;;7.22;5.15;;;16.50;99.90;;;;;;4967178;28;20040;-72
2023/09/03 01:40:57;;;;;;;9.07;5.47;;;16.40;99.90;;;;;;4969410;28;20030;-72
2023/09/03 01:43:26;;;;;;;8.13;5.18;;;16.40;99.90;;;;;;4944497;28;20849;-72
2023/09/03 01:46:05;;;;;;;8.05;5.25;;;16.40;99.90;;;;;;4954471;28;20054;-72
2023/09/03 01:48:58;;;;;;;7.60;4.80;;;16.40;99.90;;;;;;4949592;28;20050;-71
2023/09/03 01:51:46;;;;;;;7.03;5.35;;;16.40;99.90;;;;;;4961101;28;20050;-72
2023/09/03 01:54:18;;;;;;;7.22;4.82;;;16.40;99.90;;;;;;4963626;28;20027;-71
2023/09/03 01:57:00;;;;;;;7.57;4.80;;;16.40;99.90;;;;;;4968862;28;20031;-71
2023/09/03 01:59:58;;;;;;;5.93;4.82;;;16.40;99.90;;;;;;4964208;28;20119;-72
2023/09/03 02:02:25;;;;;;;8.63;5.68;;;16.40;99.90;;;;;;4944605;28;20027;-72
2023/09/03 02:04:51;;;;;;;8.93;5.22;;;16.40;99.90;;;;;;4969008;28;20077;-71
2023/09/03 02:07:17;;;;;;;7.10;5.78;;;16.30;99.90;;;;;;4962043;28;20401;-71
2023/09/03 02:09:43;;;;;;;6.05;4.18;;;16.30;99.90;;;;;;4944075;29;20546;-72
2023/09/03 02:12:09;;;;;;;7.15;5.30;;;16.30;99.90;;;;;;4960057;28;20031;-72
2023/09/03 02:14:35;;;;;;;6.78;4.93;;;16.30;99.90;;;;;;4966734;28;20082;-72
2023/09/03 02:17:01;;;;;;;7.32;5.90;;;16.30;99.90;;;;;;4968240;28;20027;-72
2023/09/03 02:19:26;;;;;;;7.60;5.78;;;16.30;99.90;;;;;;4955073;28;20019;-72
2023/09/03 02:21:52;;;;;;;7.00;5.45;;;16.30;99.90;;;;;;4948708;28;20105;-72
2023/09/03 02:24:18;;;;;;;7.38;5.65;;;16.30;99.90;;;;;;4960997;28;20046;-72
2023/09/03 02:26:45;;;;;;;8.52;5.40;;;16.20;99.90;;;;;;4953171;29;20022;-72
2023/09/03 02:29:14;;;;;;;7.57;4.88;;;16.20;99.90;;;;;;4954649;29;20075;-71
2023/09/03 02:31:40;;;;;;;7.20;5.35;;;16.20;99.90;;;;;;4962614;28;20018;-72
2023/09/03 02:34:07;;;;;;;6.85;5.13;;;16.20;99.90;;;;;;4960419;28;20034;-71
2023/09/03 02:36:34;;;;;;;7.05;5.30;;;16.10;99.90;;;;;;4950290;29;20055;-72
2023/09/03 02:39:06;;;;;;;9.32;6.05;;;16.10;99.90;;;;;;4965748;28;20066;-72
2023/09/03 02:41:33;;;;;;;11.13;5.50;;;16.10;99.90;;;;;;4951010;29;20055;-72
2023/09/03 02:44:01;;;;;;;7.60;5.55;;;16.10;99.90;;;;;;4965793;28;20029;-73
2023/09/03 02:46:30;;;;;;;6.80;5.88;;;16.10;99.90;;;;;;4959790;28;20030;-73
2023/09/03 02:48:56;;;;;;;11.13;6.47;;;16.10;99.90;;;;;;4973756;28;20030;-72
2023/09/03 02:51:21;;;;;;;9.07;5.97;;;16.10;99.90;;;;;;4959860;28;20031;-73
2023/09/03 02:53:51;;;;;;;10.38;5.30;;;16.00;99.90;;;;;;4965671;28;20023;-73
2023/09/03 02:56:17;;;;;;;8.63;5.63;;;16.00;99.90;;;;;;4967858;28;20081;-72
2023/09/03 02:58:47;;;;;;;7.28;5.40;;;16.00;99.90;;;;;;4960860;28;20485;-72
2023/09/03 03:01:15;;;;;;;9.38;5.55;;;16.00;99.90;;;;;;4943266;29;20023;-72
2023/09/03 03:03:41;;;;;;;8.80;5.28;;;15.90;99.90;;;;;;4969743;28;20031;-72
2023/09/03 03:06:09;;;;;;;8.20;6.35;;;15.70;99.90;;;;;;4952995;29;20508;-72
2023/09/03 03:08:38;;;;;;;7.90;5.13;;;15.60;99.90;;;;;;4967145;28;20060;-72
2023/09/03 03:11:12;;;;;;;8.05;5.80;;;15.50;99.90;;;;;;4957609;28;20027;-72
2023/09/03 03:13:43;;;;;;;8.80;6.05;;;15.50;99.90;;;;;;4966904;28;20037;-72
2023/09/03 03:16:15;;;;;;;8.45;5.88;;;15.40;99.90;;;;;;4947758;28;20473;-71
2023/09/03 03:18:45;;;;;;;6.05;5.30;;;15.40;99.90;;;;;;4960189;28;20020;-72
2023/09/03 03:21:19;;;;;;;8.73;6.32;;;15.40;99.90;;;;;;4946402;28;20030;-72
2023/09/03 03:23:49;;;;;;;7.45;5.80;;;15.40;99.90;;;;;;4960374;28;20023;-72
2023/09/03 03:26:19;;;;;;;7.95;6.18;;;15.50;99.90;;;;;;4953562;29;20035;-72
2023/09/03 03:28:45;;;;;;;8.85;6.15;;;15.50;99.90;;;;;;4965507;28;20055;-73
2023/09/03 03:31:15;;;;;;;8.48;5.88;;;15.50;99.90;;;;;;4955496;28;20033;-72
2023/09/03 03:33:42;;;;;;;8.98;6.22;;;15.50;99.90;;;;;;4963896;28;20035;-73
2023/09/03 03:36:18;;;;;;;9.88;6.50;;;15.50;99.90;;;;;;4959203;28;20019;-72
2023/09/03 03:38:44;;;;;;;9.25;6.55;;;15.50;99.90;;;;;;4955445;28;20047;-72
2023/09/03 03:41:18;;;;;;;9.90;6.90;;;15.50;99.90;;;;;;4967207;28;20090;-72
2023/09/03 03:43:49;;;;;;;8.63;6.22;;;15.50;99.90;;;;;;4962603;28;20093;-72
2023/09/03 03:46:16;;;;;;;8.27;6.80;;;15.50;99.90;;;;;;4956882;28;20084;-72
2023/09/03 03:48:43;;;;;;;8.38;6.07;;;15.50;99.90;;;;;;4961636;28;20030;-72
2023/09/03 03:51:09;;;;;;;8.85;6.30;;;15.50;99.90;;;;;;4956974;28;20067;-72
2023/09/03 03:53:38;;;;;;;7.75;6.00;;;15.40;99.90;;;;;;4959582;28;20114;-72
2023/09/03 03:56:09;;;;;;;6.68;5.47;;;15.40;99.90;;;;;;4960232;28;20019;-72
2023/09/03 03:58:39;;;;;;;8.60;6.20;;;15.30;99.90;;;;;;4966362;28;20444;-72
2023/09/03 04:01:12;;;;;;;9.43;6.05;;;15.30;99.90;;;;;;4965349;28;20442;-72
2023/09/03 04:03:37;;;;;;;8.02;5.97;;;15.30;99.90;;;;;;4958764;28;20054;-72
2023/09/03 04:06:03;;;;;;;7.53;6.35;;;15.30;99.90;;;;;;4962047;28;20051;-72
2023/09/03 04:08:33;;;;;;;7.65;5.53;;;15.30;99.90;;;;;;4966365;28;20024;-72
2023/09/03 04:11:03;;;;;;;7.07;6.30;;;15.30;99.90;;;;;;4957129;28;20088;-72
2023/09/03 04:13:30;;;;;;;8.80;6.78;;;15.30;99.90;;;;;;4965124;28;20804;-72
2023/09/03 04:15:56;;;;;;;13.07;7.10;;;15.20;99.90;;;;;;4959089;28;20034;-72
2023/09/03 04:18:23;;;;;;;11.05;6.93;;;15.30;99.90;;;;;;4967697;28;20090;-72
2023/09/03 04:20:57;;;;;;;9.00;6.70;;;15.20;99.90;;;;;;4965657;28;20027;-72
2023/09/03 04:23:24;;;;;;;10.60;7.10;;;15.20;99.90;;;;;;4952878;28;20111;-72
2023/09/03 04:25:53;;;;;;;8.73;7.10;;;15.20;99.90;;;;;;4955504;28;20035;-72
2023/09/03 04:28:19;;;;;;;9.18;7.18;;;15.20;99.90;;;;;;4963667;28;20053;-72
2023/09/03 04:30:45;;;;;;;9.25;7.15;;;15.20;99.90;;;;;;4957633;28;20027;-72
2023/09/03 04:33:11;;;;;;;9.73;7.03;;;15.20;99.90;;;;;;4965657;28;20944;-72
2023/09/03 04:35:38;;;;;;;7.95;6.18;;;15.20;99.90;;;;;;4965560;28;20023;-72
2023/09/03 04:38:04;;;;;;;9.40;6.63;;;15.20;99.90;;;;;;4958725;28;20015;-72
2023/09/03 04:40:37;;;;;;;10.05;6.70;;;15.20;99.90;;;;;;4951756;29;20066;-73
2023/09/03 04:43:12;;;;;;;7.43;5.55;;;15.20;99.90;;;;;;4945724;29;20030;-72
2023/09/03 04:45:44;;;;;;;12.20;7.05;;;15.20;99.90;;;;;;4955313;28;20054;-72
2023/09/03 04:48:10;;;;;;;10.77;7.45;;;15.20;99.90;;;;;;4958525;28;20035;-72
2023/09/03 04:50:35;;;;;;;9.43;6.78;;;15.10;99.90;;;;;;4962603;28;20107;-72
2023/09/03 04:53:01;;;;;;;7.53;6.28;;;15.10;99.90;;;;;;4966001;28;20133;-72
2023/09/03 04:55:30;;;;;;;11.80;7.40;;;15.20;99.90;;;;;;4960914;28;20030;-72
2023/09/03 04:57:59;;;;;;;8.45;6.82;;;15.20;99.90;;;;;;4958471;28;20027;-72
2023/09/03 05:00:25;;;;;;;9.23;6.75;;;15.10;99.90;;;;;;4965684;28;20028;-72
2023/09/03 05:02:51;;;;;;;10.65;6.78;;;15.10;99.90;;;;;;4964601;28;20090;-72
2023/09/03 05:05:18;;;;;;;8.57;6.00;;;15.10;99.90;;;;;;4952629;29;20034;-72
2023/09/03 05:07:44;;;;;;;9.63;6.78;;;15.10;99.90;;;;;;4949386;28;20038;-72
2023/09/03 05:10:10;;;;;;;8.88;6.72;;;15.10;99.90;;;;;;4944640;28;20027;-72
2023/09/03 05:12:41;;;;;;;8.88;6.72;;;15.10;99.90;;;;;;4961369;28;20234;-73
2023/09/03 05:15:09;;;;;;;7.97;6.40;;;15.10;99.90;;;;;;4964033;28;20470;-72
2023/09/03 05:17:38;;;;;;;8.88;6.82;;;15.20;99.90;;;;;;4969414;28;20023;-72
2023/09/03 05:20:04;;;;;;;11.95;7.63;;;15.10;99.90;;;;;;4956455;29;20122;-72
2023/09/03 05:22:30;;;;;;;9.93;6.63;;;15.10;99.90;;;;;;4958671;28;20085;-72
2023/09/03 05:24:56;;;;;;;8.73;7.20;;;15.10;99.90;;;;;;4966819;28;20027;-72
2023/09/03 05:27:22;;;;;;;8.18;6.97;;;15.10;99.90;;;;;;4969202;28;20038;-73
2023/09/03 05:29:47;;;;;;;9.20;7.05;;;15.10;99.90;;;;;;4962564;28;20033;-72
2023/09/03 05:32:13;;;;;;;9.63;7.35;;;15.10;99.90;;;;;;4971881;28;20027;-72
2023/09/03 05:34:39;;;;;;;8.02;6.90;;;15.00;99.90;;;;;;4961562;28;20074;-72
2023/09/03 05:37:05;;;;;;;10.60;7.88;;;15.10;99.90;;;;;;4974313;28;20031;-72
2023/09/03 05:39:31;;;;;;;9.68;7.50;;;15.10;99.90;;;;;;4961126;28;20058;-72
2023/09/03 05:41:57;;;;;;;10.00;8.07;;;15.10;99.90;;;;;;4966309;28;20019;-72
2023/09/03 05:44:23;;;;;;;9.63;7.95;;;15.10;99.90;;;;;;4960258;28;20058;-72
2023/09/03 05:46:49;;;;;;;11.88;8.80;;;15.10;99.90;;;;;;4966949;28;20016;-72
2023/09/03 05:49:15;;;;;;;10.40;8.68;;;15.20;99.90;;;;;;4967890;28;20512;-73
2023/09/03 05:51:41;;;;;;;13.93;9.05;;;15.20;99.90;;;;;;4961283;28;20029;-72
2023/09/03 05:54:10;;;;;;;11.38;8.38;;;15.20;99.90;;;;;;4963917;28;20023;-72
2023/09/03 05:56:36;;;;;;;9.45;8.10;;;15.20;99.90;;;;;;4968891;28;20900;-72
2023/09/03 05:59:05;;;;;;;9.73;8.00;;;15.20;99.90;;;;;;4964465;28;20074;-72
2023/09/03 06:01:34;;;;;;;10.57;7.70;;;15.30;99.90;;;;;;4962434;28;20078;-72
2023/09/03 06:04:04;;;;;;;10.15;7.90;;;15.30;99.90;;;;;;4970946;28;20037;-72
2023/09/03 06:06:37;;;;;;;10.18;7.65;;;15.30;99.90;;;;;;4961234;28;20075;-72
2023/09/03 06:09:03;;;;;;;11.45;7.75;;;15.40;99.90;;;;;;4968178;28;20485;-72
2023/09/03 06:11:29;;;;;;;11.00;8.18;;;15.40;99.90;;;;;;4970731;28;20030;-72
2023/09/03 06:13:55;;;;;;;9.50;7.38;;;15.50;99.90;;;;;;4960203;28;20034;-72
2023/09/03 06:16:20;;;;;;;10.23;7.85;;;15.50;99.90;;;;;;4966541;28;20035;-72
2023/09/03 06:18:46;;;;;;;12.10;8.30;;;15.60;99.90;;;;;;4937332;29;20033;-72
2023/09/03 06:21:12;;;;;;;11.23;8.70;;;15.60;99.90;;;;;;4937846;29;20038;-72
2023/09/03 06:23:37;;;;;;;11.80;8.77;;;15.70;99.90;;;;;;4948548;28;20026;-72
2023/09/03 06:26:03;;;;;;;14.02;10.20;;;15.70;99.90;;;;;;4968790;28;20114;-72
2023/09/03 06:28:29;;;;;;;12.00;9.50;;;15.80;99.90;;;;;;4963630;28;20507;-72
2023/09/03 06:30:57;;;;;;;12.95;9.55;;;15.80;99.90;;;;;;4960925;28;20077;-72
2023/09/03 06:33:26;;;;;;;11.77;9.98;;;15.90;99.90;;;;;;4948175;29;20174;-72
2023/09/03 06:35:51;;;;;;;12.10;9.82;;;15.90;99.90;;;;;;4968329;28;20182;-72
2023/09/03 06:38:17;;;;;;;11.80;9.60;;;15.90;99.90;;;;;;4960831;28;20155;-72
2023/09/03 06:40:43;;;;;;;12.82;10.18;;;16.00;99.90;;;;;;4961599;28;20078;-72
2023/09/03 06:43:09;;;;;;;11.00;9.57;;;16.10;99.90;;;;;;4967958;28;20023;-72
2023/09/03 06:45:35;;;;;;;11.88;8.98;;;16.10;99.90;;;;;;4965056;28;20113;-72
2023/09/03 06:48:00;;;;;;;14.88;10.70;;;16.20;99.90;;;;;;4959880;28;20159;-72
2023/09/03 06:50:26;;;;;;;15.73;10.40;;;16.20;99.90;;;;;;4965225;28;20027;-72
2023/09/03 06:52:53;;;;;;;14.63;11.02;;;16.20;99.90;;;;;;4967844;28;20023;-72
2023/09/03 06:55:19;;;;;;;14.52;11.82;;;16.30;99.90;;;;;;4960992;28;20037;-72
2023/09/03 06:57:44;;;;;;;16.30;11.52;;;16.30;99.90;;;;;;4961129;28;20114;-72
2023/09/03 07:00:11;;;;;;;14.00;10.95;;;16.40;99.90;;;;;;4967558;28;20023;-72
2023/09/03 07:02:37;;;;;;;15.15;11.77;;;16.40;99.90;;;;;;4958909;28;20030;-72
2023/09/03 07:05:03;;;;;;;12.85;10.82;;;16.50;99.90;;;;;;4954484;28;20088;-72
2023/09/03 07:07:31;;;;;;;12.00;10.05;;;16.50;99.90;;;;;;4953781;28;20224;-72
2023/09/03 07:09:57;;;;;;;15.05;13.00;;;16.60;99.90;;;;;;4948278;28;20031;-72
2023/09/03 07:12:24;;;;;;;15.07;12.00;;;16.60;99.90;;;;;;4958339;28;20034;-72
2023/09/03 07:14:51;;;;;;;16.83;12.77;;;16.70;99.90;;;;;;4959516;28;20019;-72
2023/09/03 07:17:16;;;;;;;13.10;11.63;;;16.70;99.90;;;;;;4957141;28;20513;-72
2023/09/03 07:19:42;;;;;;;14.85;12.23;;;16.80;99.90;;;;;;4955604;28;20031;-72
2023/09/03 07:22:08;;;;;;;13.38;11.63;;;16.80;99.90;;;;;;4954932;28;20031;-72
2023/09/03 07:24:33;;;;;;;13.70;11.35;;;16.90;99.90;;;;;;4958715;28;20037;-72
2023/09/03 07:26:59;;;;;;;14.57;11.55;;;16.90;99.90;;;;;;4960716;28;20106;-72
2023/09/03 07:29:25;;;;;;;16.23;11.55;;;16.90;99.90;;;;;;4967888;28;20137;-72
2023/09/03 07:31:50;;;;;;;12.77;10.45;;;17.00;99.90;;;;;;4959920;28;20123;-72
2023/09/03 07:34:16;;;;;;;13.25;10.95;;;17.00;99.90;;;;;;4945873;28;20041;-73
2023/09/03 07:36:43;;;;;;;15.68;11.10;;;17.00;99.90;;;;;;4966374;28;20023;-74
2023/09/03 07:39:10;;;;;;;12.70;9.95;;;17.10;99.90;;;;;;4959279;28;20514;-72
2023/09/03 07:41:37;;;;;;;13.75;10.65;;;17.10;99.90;;;;;;4958741;28;20034;-72
2023/09/03 07:44:08;;;;;;;12.95;10.45;;;17.10;99.90;;;;;;4957172;28;20033;-72
2023/09/03 07:46:37;;;;;;;14.95;11.30;;;17.20;99.90;;;;;;4941118;28;20022;-73
2023/09/03 07:49:03;;;;;;;14.10;10.85;;;17.20;99.90;;;;;;4937236;29;20664;-72
2023/09/03 07:51:28;;;;;;;13.65;10.02;;;17.30;99.90;;;;;;4941760;28;20113;-73
2023/09/03 07:53:54;;;;;;;14.77;10.40;;;17.30;99.90;;;;;;4952815;28;20023;-72
2023/09/03 07:56:20;;;;;;;13.45;9.23;;;17.40;99.90;;;;;;4957687;28;20031;-72
2023/09/03 07:58:46;;;;;;;11.55;9.23;;;17.40;99.90;;;;;;4965505;28;20091;-73
2023/09/03 08:01:14;;;;;;;11.35;9.25;;;17.40;99.90;;;;;;4966649;28;20046;-73
2023/09/03 08:03:40;;;;;;;13.88;8.90;;;17.50;99.90;;;;;;4958828;28;20019;-72
2023/09/03 08:06:07;;;;;;;12.30;9.30;;;17.50;99.90;;;;;;4944335;29;20027;-72
2023/09/03 08:08:34;;;;;;;13.82;9.85;;;17.60;99.90;;;;;;4966667;28;20029;-72
2023/09/03 08:11:02;;;;;;;12.18;10.13;;;17.60;99.90;;;;;;4956813;28;20035;-73
2023/09/03 08:13:28;;;;;;;10.82;9.27;;;17.70;99.90;;;;;;4955297;28;20027;-73
2023/09/03 08:15:54;;;;;;;10.80;8.10;;;17.70;99.90;;;;;;4966999;28;20478;-73
2023/09/03 08:18:20;;;;;;;10.25;9.13;;;17.80;99.90;;;;;;4963127;28;20039;-71
2023/09/03 08:20:48;;;;;;;12.07;9.20;;;17.80;99.90;;;;;;4959342;28;20059;-72
2023/09/03 08:23:15;;;;;;;12.75;8.85;;;17.90;99.90;;;;;;4968059;28;20110;-72
2023/09/03 08:25:44;;;;;;;12.10;8.63;;;17.90;99.90;;;;;;4968903;28;20031;-72
2023/09/03 08:28:11;;;;;;;12.68;8.63;;;18.00;99.90;;;;;;4959300;28;20456;-72
2023/09/03 08:30:38;;;;;;;11.15;8.57;;;18.00;99.90;;;;;;4959526;28;20027;-72
2023/09/03 08:33:04;;;;;;;14.50;9.43;;;18.10;99.90;;;;;;4966632;28;20027;-73
2023/09/03 08:35:29;;;;;;;11.38;8.60;;;18.20;99.90;;;;;;4954810;28;20788;-73
2023/09/03 08:37:55;;;;;;;12.55;9.00;;;18.20;99.90;;;;;;4968663;28;20031;-74
2023/09/03 08:40:21;;;;;;;11.35;8.77;;;18.20;99.90;;;;;;4966484;28;20023;-72
2023/09/03 08:42:47;;;;;;;9.98;8.40;;;18.30;99.90;;;;;;4962497;28;20465;-72
2023/09/03 08:45:17;;;;;;;10.18;9.00;;;18.30;99.90;;;;;;4950929;28;20501;-72
2023/09/03 08:47:44;;;;;;;11.85;10.48;;;18.40;99.90;;;;;;4973405;28;20037;-73
2023/09/03 08:50:16;;;;;;;13.07;9.63;;;18.50;99.90;;;;;;4957775;28;20045;-73
2023/09/03 08:52:43;;;;;;;11.65;9.20;;;18.50;99.90;;;;;;4951855;28;20507;-72
2023/09/03 08:55:15;;;;;;;10.48;9.38;;;18.60;99.90;;;;;;4957279;28;20102;-73
2023/09/03 08:57:41;;;;;;;11.95;8.32;;;18.60;99.90;;;;;;4936804;29;20446;-73
2023/09/03 09:00:10;;;;;;;12.77;9.15;;;18.70;99.90;;;;;;4965815;28;20023;-73
2023/09/03 09:02:37;;;;;;;9.98;8.73;;;18.70;99.90;;;;;;4947779;29;20034;-73
2023/09/03 09:05:07;;;;;;;10.80;8.52;;;18.80;99.90;;;;;;4970205;28;20076;-72
2023/09/03 09:07:33;;;;;;;11.70;9.27;;;18.80;99.90;;;;;;4948093;28;20030;-72
2023/09/03 09:10:06;;;;;;;10.98;8.52;;;18.90;99.90;;;;;;4962046;28;20054;-72
2023/09/03 09:12:45;;;;;;;11.32;8.80;;;19.00;99.90;;;;;;4961510;28;20051;-73
2023/09/03 09:15:13;;;;;;;10.50;9.30;;;19.10;99.90;;;;;;4949607;28;20086;-72
2023/09/03 09:17:41;;;;;;;8.98;7.50;;;19.10;99.90;;;;;;4955621;29;20028;-72
2023/09/03 09:20:08;;;;;;;10.60;8.23;;;19.20;99.90;;;;;;4951394;28;20027;-73
2023/09/03 09:22:45;;;;;;;8.85;6.68;;;19.20;99.90;;;;;;4964634;28;20027;-73
2023/09/03 09:25:21;;;;;;;8.88;6.93;;;19.30;99.90;;;;;;4959956;28;20110;-72
2023/09/03 09:27:47;;;;;;;7.70;6.72;;;19.40;99.90;;;;;;4959628;28;20482;-72
2023/09/03 09:30:19;;;;;;;9.13;7.82;;;19.40;99.90;;;;;;4954099;29;20063;-72
2023/09/03 09:32:45;;;;;;;8.45;7.03;;;19.40;99.90;;;;;;4968872;28;20023;-72
2023/09/03 09:35:23;;;;;;;8.75;6.28;;;19.50;99.90;;;;;;4964943;28;20046;-72
2023/09/03 09:37:52;;;;;;;9.65;6.30;;;19.50;99.90;;;;;;4955313;28;20053;-72
2023/09/03 09:40:29;;;;;;;5.75;4.18;;;19.60;99.90;;;;;;4964790;28;20051;-73
2023/09/03 09:43:00;;;;;;;7.05;4.15;;;19.60;99.90;;;;;;4958296;28;20074;-73
2023/09/03 09:45:27;;;;;;;7.40;5.20;;;19.60;99.90;;;;;;4959434;28;20033;-73
2023/09/03 09:48:10;;;;;;;7.10;4.82;;;19.70;99.90;;;;;;4968439;28;20038;-73
2023/09/03 09:50:44;;;;;;;7.78;5.38;;;19.70;99.90;;;;;;4959100;28;20039;-73
2023/09/03 09:53:22;;;;;;;6.30;5.00;;;19.70;99.90;;;;;;4944506;28;20465;-73
2023/09/03 09:55:56;;;;;;;8.40;6.45;;;19.80;99.90;;;;;;4951281;29;20031;-73
2023/09/03 09:58:21;;;;;;;9.07;6.10;;;19.90;99.90;;;;;;4959844;28;20037;-73
2023/09/03 10:00:55;;;;;;;7.20;5.10;;;19.90;99.90;;;;;;4970088;28;20027;-73
2023/09/03 10:03:21;;;;;;;6.70;4.50;;;20.00;99.90;;;;;;4963211;28;20030;-73
2023/09/03 10:05:50;;;;;;;6.47;4.65;;;20.00;99.90;;;;;;4953443;28;20034;-73
2023/09/03 10:08:16;;;;;;;7.50;5.40;;;20.10;99.90;;;;;;4956384;28;20031;-73
2023/09/03 10:10:43;;;;;;;6.82;5.05;;;20.20;99.90;;;;;;4949428;28;20023;-73
2023/09/03 10:13:10;;;;;;;5.40;4.20;;;20.30;99.90;;;;;;4938734;29;20038;-73
2023/09/03 10:15:40;;;;;;;6.53;4.85;;;20.40;99.90;;;;;;4955486;28;20019;-73
2023/09/03 10:18:08;;;;;;;7.17;3.53;;;20.40;99.90;;;;;;4959776;28;20157;-73
2023/09/03 10:20:39;;;;;;;6.75;3.85;;;20.50;99.90;;;;;;4945969;28;20329;-74
2023/09/03 10:23:07;;;;;;;27.30;4.68;;;20.60;99.90;;;;;;4944355;28;20034;-73
2023/09/03 10:25:34;;;;;;;4.65;2.40;;;20.60;99.90;;;;;;4968885;28;20030;-73
2023/09/03 10:28:04;;;;;;;3.88;2.60;;;20.60;99.90;;;;;;4947051;28;20037;-73
2023/09/03 10:30:35;;;;;;;3.90;2.60;;;20.70;99.90;;;;;;4964424;28;20032;-73
2023/09/03 10:33:02;;;;;;;3.58;1.85;;;20.70;99.90;;;;;;4956784;28;20027;-73
2023/09/03 10:35:27;;;;;;;3.05;2.08;;;20.70;99.90;;;;;;4955112;28;20015;-73
2023/09/03 10:37:53;;;;;;;3.67;2.17;;;20.80;99.90;;;;;;4954804;28;20022;-73
2023/09/03 10:40:27;;;;;;;3.13;1.85;;;20.80;99.90;;;;;;4954256;28;20039;-73
2023/09/03 10:42:54;;;;;;;4.00;2.50;;;20.80;99.90;;;;;;4970529;28;20055;-74
2023/09/03 10:45:19;;;;;;;4.10;2.50;;;20.80;99.90;;;;;;4957549;28;20059;-74
2023/09/03 10:48:05;;;;;;;4.22;2.38;;;20.90;99.90;;;;;;4955216;28;20050;-74
2023/09/03 10:50:57;;;;;;;2.35;1.30;;;20.90;99.90;;;;;;4949642;28;20027;-74
2023/09/03 10:53:42;;;;;;;2.00;1.27;;;21.00;99.90;;;;;;4956925;28;20097;-74
2023/09/03 10:56:19;;;;;;;3.17;1.42;;;21.00;99.90;;;;;;4960722;28;20129;-74
2023/09/03 10:58:55;;;;;;;2.53;1.55;;;21.00;99.90;;;;;;4948905;28;20054;-74
2023/09/03 11:01:30;;;;;;;2.72;1.60;;;21.00;99.90;;;;;;4963944;28;20043;-74
2023/09/03 11:03:57;;;;;;;3.33;2.15;;;21.10;99.90;;;;;;4969382;28;20027;-74
2023/09/03 11:06:33;;;;;;;3.90;2.28;;;21.10;99.90;;;;;;4959879;28;20509;-74
2023/09/03 11:08:59;;;;;;;3.17;2.20;;;21.10;99.90;;;;;;4949494;28;20030;-74
2023/09/03 11:11:30;;;;;;;2.63;2.08;;;21.20;99.90;;;;;;4968802;28;20038;-73
2023/09/03 11:14:00;;;;;;;3.00;2.28;;;21.20;99.90;;;;;;4964793;28;20039;-73
2023/09/03 11:16:57;;;;;;;4.40;2.30;;;21.30;99.90;;;;;;4965156;28;20032;-74
2023/09/03 11:19:23;;;;;;;2.97;2.00;;;21.30;99.90;;;;;;4965607;28;20031;-74
2023/09/03 11:21:49;;;;;;;5.07;2.20;;;21.40;99.90;;;;;;4963758;28;20023;-75
2023/09/03 11:24:16;;;;;;;2.55;2.05;;;21.30;99.90;;;;;;4958640;28;20029;-75
2023/09/03 11:26:42;;;;;;;4.05;2.13;;;21.40;99.90;;;;;;4960998;28;20077;-75
2023/09/03 11:29:25;;;;;;;5.43;2.20;;;21.40;99.90;;;;;;4963281;28;20023;-75
2023/09/03 11:31:51;;;;;;;4.70;2.08;;;21.50;99.90;;;;;;4965254;28;20031;-75
2023/09/03 11:34:24;;;;;;;4.13;2.42;;;21.50;99.90;;;;;;4959475;28;20497;-74
2023/09/03 11:36:50;;;;;;;4.50;2.90;;;21.60;99.90;;;;;;4963086;28;20030;-74
2023/09/03 11:39:17;;;;;;;4.03;2.70;;;21.70;99.90;;;;;;4982861;28;20047;-74
2023/09/03 11:41:43;;;;;;;3.72;2.45;;;21.70;99.90;;;;;;4969831;28;20034;-75
2023/09/03 11:44:19;;;;;;;3.05;2.13;;;21.70;99.90;;;;;;4963253;28;20591;-75
2023/09/03 11:47:04;;;;;;;3.70;2.22;;;21.80;99.90;;;;;;4952404;28;20034;-74
2023/09/03 11:49:30;;;;;;;2.75;1.90;;;21.80;99.90;;;;;;4955130;28;20446;-75
2023/09/03 11:52:09;;;;;;;3.30;1.80;;;21.80;99.90;;;;;;4960229;28;20047;-74
2023/09/03 11:54:36;;;;;;;2.72;1.92;;;21.90;99.90;;;;;;4948916;28;20059;-73
2023/09/03 11:57:05;;;;;;;3.53;1.80;;;22.00;99.90;;;;;;4956111;28;20070;-72
2023/09/03 11:59:34;;;;;;;2.67;2.08;;;22.00;99.90;;;;;;4954273;28;20481;-74
2023/09/03 12:02:00;;;;;;;3.22;1.80;;;22.10;99.90;;;;;;4953878;28;20027;-75
2023/09/03 12:04:26;;;;;;;3.13;1.90;;;22.20;99.90;;;;;;4964497;28;20023;-75
2023/09/03 12:06:51;;;;;;;3.70;2.05;;;22.20;99.90;;;;;;4965184;28;20456;-75
2023/09/03 12:09:22;;;;;;;3.10;2.10;;;22.30;99.90;;;;;;4962456;28;20244;-76
2023/09/03 12:11:51;;;;;;;2.05;1.80;;;22.30;99.90;;;;;;4954888;28;20054;-74
2023/09/03 12:14:29;;;;;;;2.25;1.70;;;22.40;99.90;;;;;;4964174;28;20027;-75
2023/09/03 12:16:58;;;;;;;2.85;1.90;;;22.40;99.90;;;;;;4944393;28;20147;-73
2023/09/03 12:19:24;;;;;;;3.08;2.08;;;22.40;99.90;;;;;;4958445;28;20077;-73
2023/09/03 12:21:51;;;;;;;3.35;1.90;;;22.40;99.90;;;;;;4956658;28;20087;-75
2023/09/03 12:24:24;;;;;;;3.72;2.00;;;22.50;99.90;;;;;;4965904;28;20759;-76
2023/09/03 12:27:05;;;;;;;2.53;1.98;;;22.50;99.90;;;;;;4972186;28;20042;-75
2023/09/03 12:29:38;;;;;;;2.83;1.90;;;22.50;99.90;;;;;;4970149;28;20423;-75
2023/09/03 12:32:15;;;;;;;3.38;1.90;;;22.50;99.90;;;;;;4967815;28;20031;-73
2023/09/03 12:34:49;;;;;;;2.80;1.77;;;22.50;99.90;;;;;;4968280;28;20101;-73
2023/09/03 12:37:15;;;;;;;1.98;1.70;;;22.60;99.90;;;;;;4961597;28;20023;-75
2023/09/03 12:39:43;;;;;;;2.58;1.58;;;22.50;99.90;;;;;;4969656;28;20066;-75
2023/09/03 12:42:10;;;;;;;3.80;1.58;;;22.50;99.90;;;;;;4940323;29;20023;-75
2023/09/03 12:44:36;;;;;;;3.28;1.77;;;22.50;99.90;;;;;;4968978;28;20028;-75
2023/09/03 12:47:02;;;;;;;4.68;1.50;;;22.60;99.90;;;;;;4956033;28;20027;-77
2023/09/03 12:49:29;;;;;;;1.60;1.38;;;22.60;99.90;;;;;;4956749;28;20027;-77
2023/09/03 12:51:55;;;;;;;3.35;1.60;;;22.60;99.90;;;;;;4974660;28;20105;-76